sensor_id;sensor_type;location;lat;lon;timestamp;P1;durP1;ratioP1;P2;durP2;ratioP2
41683;SDS011;27369;52.030;4.586;2022-12-07T00:00:17;11.13;;;1.83;;
41683;SDS011;27369;52.030;4.586;2022-12-07T00:02:43;9.73;;;2.30;;
41683;SDS011;27369;52.030;4.586;2022-12-07T00:05:08;6.05;;;1.98;;
41683;SDS011;27369;52.030;4.586;2022-12-07T00:07:33;9.05;;;2.40;;
41683;SDS011;27369;52.030;4.586;2022-12-07T00:09:59;9.52;;;2.90;;
41683;SDS011;27369;52.030;4.586;2022-12-07T00:12:24;9.13;;;2.83;;
41683;SDS011;27369;52.030;4.586;2022-12-07T00:14:50;6.93;;;2.38;;
41683;SDS011;27369;52.030;4.586;2022-12-07T00:17:15;4.18;;;1.38;;
41683;SDS011;27369;52.030;4.586;2022-12-07T00:19:40;11.30;;;1.73;;
41683;SDS011;27369;52.030;4.586;2022-12-07T00:22:06;12.13;;;2.45;;
41683;SDS011;27369;52.030;4.586;2022-12-07T00:24:31;9.88;;;2.72;;
41683;SDS011;27369;52.030;4.586;2022-12-07T00:26:57;7.18;;;3.10;;
41683;SDS011;27369;52.030;4.586;2022-12-07T00:29:22;6.80;;;2.63;;
41683;SDS011;27369;52.030;4.586;2022-12-07T00:31:48;10.70;;;2.63;;
41683;SDS011;27369;52.030;4.586;2022-12-07T00:34:17;4.90;;;2.20;;
41683;SDS011;27369;52.030;4.586;2022-12-07T00:36:44;7.75;;;2.42;;
41683;SDS011;27369;52.030;4.586;2022-12-07T00:39:09;7.78;;;2.95;;
41683;SDS011;27369;52.030;4.586;2022-12-07T00:41:35;9.52;;;2.22;;
41683;SDS011;27369;52.030;4.586;2022-12-07T00:44:01;9.52;;;2.40;;
41683;SDS011;27369;52.030;4.586;2022-12-07T00:46:26;8.45;;;2.65;;
41683;SDS011;27369;52.030;4.586;2022-12-07T00:48:52;7.30;;;1.45;;
41683;SDS011;27369;52.030;4.586;2022-12-07T00:51:19;10.90;;;2.33;;
41683;SDS011;27369;52.030;4.586;2022-12-07T00:53:46;5.82;;;1.85;;
41683;SDS011;27369;52.030;4.586;2022-12-07T00:56:12;5.53;;;1.92;;
41683;SDS011;27369;52.030;4.586;2022-12-07T00:58:42;8.15;;;2.00;;
41683;SDS011;27369;52.030;4.586;2022-12-07T01:01:08;8.85;;;1.88;;
41683;SDS011;27369;52.030;4.586;2022-12-07T01:03:35;8.85;;;2.45;;
41683;SDS011;27369;52.030;4.586;2022-12-07T01:06:01;9.05;;;1.75;;
41683;SDS011;27369;52.030;4.586;2022-12-07T01:08:27;4.50;;;1.10;;
41683;SDS011;27369;52.030;4.586;2022-12-07T01:11:06;11.75;;;1.20;;
41683;SDS011;27369;52.030;4.586;2022-12-07T01:13:33;6.50;;;0.70;;
41683;SDS011;27369;52.030;4.586;2022-12-07T01:16:00;9.20;;;0.90;;
41683;SDS011;27369;52.030;4.586;2022-12-07T01:18:28;2.75;;;0.60;;
41683;SDS011;27369;52.030;4.586;2022-12-07T01:21:01;10.80;;;1.10;;
41683;SDS011;27369;52.030;4.586;2022-12-07T01:23:52;4.38;;;0.40;;
41683;SDS011;27369;52.030;4.586;2022-12-07T01:26:19;3.72;;;0.55;;
41683;SDS011;27369;52.030;4.586;2022-12-07T01:28:46;4.10;;;0.55;;
41683;SDS011;27369;52.030;4.586;2022-12-07T01:31:13;5.65;;;0.77;;
41683;SDS011;27369;52.030;4.586;2022-12-07T01:33:41;11.85;;;1.20;;
41683;SDS011;27369;52.030;4.586;2022-12-07T01:36:18;6.03;;;0.70;;
41683;SDS011;27369;52.030;4.586;2022-12-07T01:38:45;5.50;;;0.80;;
41683;SDS011;27369;52.030;4.586;2022-12-07T01:41:12;4.88;;;1.50;;
41683;SDS011;27369;52.030;4.586;2022-12-07T01:44:07;8.70;;;0.93;;
41683;SDS011;27369;52.030;4.586;2022-12-07T01:46:41;4.40;;;0.40;;
41683;SDS011;27369;52.030;4.586;2022-12-07T01:49:10;11.82;;;0.88;;
41683;SDS011;27369;52.030;4.586;2022-12-07T01:51:41;7.25;;;0.63;;
41683;SDS011;27369;52.030;4.586;2022-12-07T01:54:08;7.75;;;0.98;;
41683;SDS011;27369;52.030;4.586;2022-12-07T01:56:36;4.95;;;0.77;;
41683;SDS011;27369;52.030;4.586;2022-12-07T01:59:04;7.05;;;1.10;;
41683;SDS011;27369;52.030;4.586;2022-12-07T02:01:30;2.75;;;0.50;;
41683;SDS011;27369;52.030;4.586;2022-12-07T02:03:55;4.63;;;0.52;;
41683;SDS011;27369;52.030;4.586;2022-12-07T02:06:22;7.88;;;0.68;;
41683;SDS011;27369;52.030;4.586;2022-12-07T02:08:49;6.53;;;0.52;;
41683;SDS011;27369;52.030;4.586;2022-12-07T02:11:15;6.13;;;0.40;;
41683;SDS011;27369;52.030;4.586;2022-12-07T02:13:41;4.55;;;0.68;;
41683;SDS011;27369;52.030;4.586;2022-12-07T02:16:13;4.82;;;0.60;;
41683;SDS011;27369;52.030;4.586;2022-12-07T02:21:19;4.97;;;0.80;;
41683;SDS011;27369;52.030;4.586;2022-12-07T02:37:03;6.85;;;0.88;;
41683;SDS011;27369;52.030;4.586;2022-12-07T02:39:47;8.55;;;0.68;;
41683;SDS011;27369;52.030;4.586;2022-12-07T02:42:20;4.68;;;0.82;;
41683;SDS011;27369;52.030;4.586;2022-12-07T02:44:53;8.93;;;0.60;;
41683;SDS011;27369;52.030;4.586;2022-12-07T02:47:19;4.22;;;0.68;;
41683;SDS011;27369;52.030;4.586;2022-12-07T02:49:47;6.93;;;0.70;;
41683;SDS011;27369;52.030;4.586;2022-12-07T02:52:14;6.65;;;0.70;;
41683;SDS011;27369;52.030;4.586;2022-12-07T02:54:40;5.43;;;0.77;;
41683;SDS011;27369;52.030;4.586;2022-12-07T03:18:43;8.55;;;0.90;;
41683;SDS011;27369;52.030;4.586;2022-12-07T03:21:14;4.07;;;0.57;;
41683;SDS011;27369;52.030;4.586;2022-12-07T03:23:44;6.55;;;0.85;;
41683;SDS011;27369;52.030;4.586;2022-12-07T03:26:15;6.63;;;1.10;;
41683;SDS011;27369;52.030;4.586;2022-12-07T03:28:45;9.63;;;1.02;;
41683;SDS011;27369;52.030;4.586;2022-12-07T03:33:59;4.97;;;0.93;;
41683;SDS011;27369;52.030;4.586;2022-12-07T03:36:47;6.97;;;0.80;;
41683;SDS011;27369;52.030;4.586;2022-12-07T03:40:21;2.83;;;0.63;;
41683;SDS011;27369;52.030;4.586;2022-12-07T03:42:26;7.47;;;0.63;;
41683;SDS011;27369;52.030;4.586;2022-12-07T03:44:51;4.90;;;0.55;;
41683;SDS011;27369;52.030;4.586;2022-12-07T03:47:23;6.55;;;1.05;;
41683;SDS011;27369;52.030;4.586;2022-12-07T03:50:04;3.17;;;0.63;;
41683;SDS011;27369;52.030;4.586;2022-12-07T03:52:59;8.10;;;0.88;;
41683;SDS011;27369;52.030;4.586;2022-12-07T03:55:34;5.38;;;0.57;;
41683;SDS011;27369;52.030;4.586;2022-12-07T03:58:06;7.10;;;1.00;;
41683;SDS011;27369;52.030;4.586;2022-12-07T04:00:35;6.90;;;0.65;;
41683;SDS011;27369;52.030;4.586;2022-12-07T04:03:00;4.45;;;0.60;;
41683;SDS011;27369;52.030;4.586;2022-12-07T04:05:26;3.78;;;0.60;;
41683;SDS011;27369;52.030;4.586;2022-12-07T04:07:51;5.55;;;0.80;;
41683;SDS011;27369;52.030;4.586;2022-12-07T04:10:17;4.95;;;0.80;;
41683;SDS011;27369;52.030;4.586;2022-12-07T04:12:43;6.15;;;1.08;;
41683;SDS011;27369;52.030;4.586;2022-12-07T04:15:08;8.43;;;2.67;;
41683;SDS011;27369;52.030;4.586;2022-12-07T04:17:34;8.77;;;3.00;;
41683;SDS011;27369;52.030;4.586;2022-12-07T04:20:00;11.13;;;1.77;;
41683;SDS011;27369;52.030;4.586;2022-12-07T04:22:25;10.38;;;1.75;;
41683;SDS011;27369;52.030;4.586;2022-12-07T04:24:51;3.45;;;1.25;;
41683;SDS011;27369;52.030;4.586;2022-12-07T04:27:16;4.65;;;1.00;;
41683;SDS011;27369;52.030;4.586;2022-12-07T04:29:41;9.02;;;1.23;;
41683;SDS011;27369;52.030;4.586;2022-12-07T04:32:07;6.23;;;1.37;;
41683;SDS011;27369;52.030;4.586;2022-12-07T04:34:32;3.15;;;0.70;;
41683;SDS011;27369;52.030;4.586;2022-12-07T04:36:58;8.30;;;1.00;;
41683;SDS011;27369;52.030;4.586;2022-12-07T04:39:30;5.32;;;1.05;;
41683;SDS011;27369;52.030;4.586;2022-12-07T04:41:57;9.25;;;1.00;;
41683;SDS011;27369;52.030;4.586;2022-12-07T04:44:24;2.45;;;0.90;;
41683;SDS011;27369;52.030;4.586;2022-12-07T04:46:50;5.22;;;0.63;;
41683;SDS011;27369;52.030;4.586;2022-12-07T04:49:16;7.73;;;1.00;;
41683;SDS011;27369;52.030;4.586;2022-12-07T04:51:43;11.38;;;0.98;;
41683;SDS011;27369;52.030;4.586;2022-12-07T04:54:09;6.57;;;1.40;;
41683;SDS011;27369;52.030;4.586;2022-12-07T04:56:35;3.53;;;1.15;;
41683;SDS011;27369;52.030;4.586;2022-12-07T04:59:01;5.18;;;0.65;;
41683;SDS011;27369;52.030;4.586;2022-12-07T05:01:28;6.32;;;0.85;;
41683;SDS011;27369;52.030;4.586;2022-12-07T05:03:53;7.15;;;1.40;;
41683;SDS011;27369;52.030;4.586;2022-12-07T05:06:19;8.55;;;3.05;;
41683;SDS011;27369;52.030;4.586;2022-12-07T05:08:45;8.50;;;3.47;;
41683;SDS011;27369;52.030;4.586;2022-12-07T05:11:11;6.53;;;3.45;;
41683;SDS011;27369;52.030;4.586;2022-12-07T05:13:57;11.68;;;3.42;;
41683;SDS011;27369;52.030;4.586;2022-12-07T05:16:22;8.55;;;3.47;;
41683;SDS011;27369;52.030;4.586;2022-12-07T05:18:48;8.75;;;3.15;;
41683;SDS011;27369;52.030;4.586;2022-12-07T05:21:13;7.20;;;3.33;;
41683;SDS011;27369;52.030;4.586;2022-12-07T05:23:39;7.95;;;2.10;;
41683;SDS011;27369;52.030;4.586;2022-12-07T05:26:04;5.25;;;1.27;;
41683;SDS011;27369;52.030;4.586;2022-12-07T05:28:30;9.80;;;1.45;;
41683;SDS011;27369;52.030;4.586;2022-12-07T05:30:55;6.63;;;1.08;;
41683;SDS011;27369;52.030;4.586;2022-12-07T05:33:21;7.38;;;1.40;;
41683;SDS011;27369;52.030;4.586;2022-12-07T05:35:46;5.85;;;0.90;;
41683;SDS011;27369;52.030;4.586;2022-12-07T05:38:12;8.07;;;1.00;;
41683;SDS011;27369;52.030;4.586;2022-12-07T05:40:37;3.08;;;0.68;;
41683;SDS011;27369;52.030;4.586;2022-12-07T05:43:02;6.13;;;0.60;;
41683;SDS011;27369;52.030;4.586;2022-12-07T05:45:28;10.38;;;1.00;;
41683;SDS011;27369;52.030;4.586;2022-12-07T05:47:53;4.30;;;0.97;;
41683;SDS011;27369;52.030;4.586;2022-12-07T05:50:19;4.22;;;0.63;;
41683;SDS011;27369;52.030;4.586;2022-12-07T05:52:44;8.80;;;1.05;;
41683;SDS011;27369;52.030;4.586;2022-12-07T05:55:10;12.77;;;1.13;;
41683;SDS011;27369;52.030;4.586;2022-12-07T05:57:35;2.55;;;0.82;;
41683;SDS011;27369;52.030;4.586;2022-12-07T06:00:00;6.00;;;0.95;;
41683;SDS011;27369;52.030;4.586;2022-12-07T06:02:26;8.18;;;1.38;;
41683;SDS011;27369;52.030;4.586;2022-12-07T06:04:52;7.55;;;1.30;;
41683;SDS011;27369;52.030;4.586;2022-12-07T06:07:17;4.68;;;1.05;;
41683;SDS011;27369;52.030;4.586;2022-12-07T06:09:43;3.53;;;0.68;;
41683;SDS011;27369;52.030;4.586;2022-12-07T06:12:09;9.30;;;1.05;;
41683;SDS011;27369;52.030;4.586;2022-12-07T06:14:54;6.57;;;0.90;;
41683;SDS011;27369;52.030;4.586;2022-12-07T06:17:20;8.18;;;1.08;;
41683;SDS011;27369;52.030;4.586;2022-12-07T06:19:45;4.13;;;0.95;;
41683;SDS011;27369;52.030;4.586;2022-12-07T06:22:11;6.75;;;1.10;;
41683;SDS011;27369;52.030;4.586;2022-12-07T06:24:37;5.97;;;1.00;;
41683;SDS011;27369;52.030;4.586;2022-12-07T06:27:03;4.95;;;1.05;;
41683;SDS011;27369;52.030;4.586;2022-12-07T06:29:29;11.02;;;1.27;;
41683;SDS011;27369;52.030;4.586;2022-12-07T06:31:55;6.30;;;1.33;;
41683;SDS011;27369;52.030;4.586;2022-12-07T06:34:21;5.50;;;1.60;;
41683;SDS011;27369;52.030;4.586;2022-12-07T06:36:48;4.95;;;1.75;;
41683;SDS011;27369;52.030;4.586;2022-12-07T06:39:17;4.63;;;1.40;;
41683;SDS011;27369;52.030;4.586;2022-12-07T06:41:43;7.03;;;1.13;;
41683;SDS011;27369;52.030;4.586;2022-12-07T06:44:09;8.30;;;1.67;;
41683;SDS011;27369;52.030;4.586;2022-12-07T06:46:34;6.07;;;1.27;;
41683;SDS011;27369;52.030;4.586;2022-12-07T06:49:03;9.27;;;1.45;;
41683;SDS011;27369;52.030;4.586;2022-12-07T06:51:30;8.77;;;1.58;;
41683;SDS011;27369;52.030;4.586;2022-12-07T06:53:56;7.15;;;1.20;;
41683;SDS011;27369;52.030;4.586;2022-12-07T06:56:21;12.00;;;1.45;;
41683;SDS011;27369;52.030;4.586;2022-12-07T06:58:47;9.35;;;1.02;;
41683;SDS011;27369;52.030;4.586;2022-12-07T07:01:14;5.93;;;1.17;;
41683;SDS011;27369;52.030;4.586;2022-12-07T07:03:41;9.60;;;1.60;;
41683;SDS011;27369;52.030;4.586;2022-12-07T07:06:07;13.07;;;1.38;;
41683;SDS011;27369;52.030;4.586;2022-12-07T07:08:34;9.85;;;1.17;;
41683;SDS011;27369;52.030;4.586;2022-12-07T07:11:00;5.95;;;1.30;;
41683;SDS011;27369;52.030;4.586;2022-12-07T07:13:26;5.30;;;1.33;;
41683;SDS011;27369;52.030;4.586;2022-12-07T07:15:52;6.47;;;1.75;;
41683;SDS011;27369;52.030;4.586;2022-12-07T07:18:18;9.77;;;1.38;;
41683;SDS011;27369;52.030;4.586;2022-12-07T07:20:43;4.40;;;1.20;;
41683;SDS011;27369;52.030;4.586;2022-12-07T07:23:09;7.20;;;0.88;;
41683;SDS011;27369;52.030;4.586;2022-12-07T07:25:34;5.80;;;1.10;;
41683;SDS011;27369;52.030;4.586;2022-12-07T07:28:00;2.42;;;0.88;;
41683;SDS011;27369;52.030;4.586;2022-12-07T07:30:26;5.82;;;1.00;;
41683;SDS011;27369;52.030;4.586;2022-12-07T07:32:55;8.07;;;1.40;;
41683;SDS011;27369;52.030;4.586;2022-12-07T07:35:27;5.72;;;1.10;;
41683;SDS011;27369;52.030;4.586;2022-12-07T07:37:54;6.55;;;0.93;;
41683;SDS011;27369;52.030;4.586;2022-12-07T07:40:20;6.90;;;1.17;;
41683;SDS011;27369;52.030;4.586;2022-12-07T07:42:49;5.78;;;0.93;;
41683;SDS011;27369;52.030;4.586;2022-12-07T07:45:15;9.05;;;1.00;;
41683;SDS011;27369;52.030;4.586;2022-12-07T07:47:40;7.40;;;0.93;;
41683;SDS011;27369;52.030;4.586;2022-12-07T07:50:06;9.88;;;1.20;;
41683;SDS011;27369;52.030;4.586;2022-12-07T07:52:32;8.90;;;1.17;;
41683;SDS011;27369;52.030;4.586;2022-12-07T07:54:57;6.53;;;0.95;;
41683;SDS011;27369;52.030;4.586;2022-12-07T07:57:23;8.25;;;1.48;;
41683;SDS011;27369;52.030;4.586;2022-12-07T07:59:48;8.52;;;1.40;;
41683;SDS011;27369;52.030;4.586;2022-12-07T08:02:18;8.13;;;1.58;;
41683;SDS011;27369;52.030;4.586;2022-12-07T08:04:44;13.18;;;1.95;;
41683;SDS011;27369;52.030;4.586;2022-12-07T08:07:11;5.82;;;1.45;;
41683;SDS011;27369;52.030;4.586;2022-12-07T08:09:37;10.70;;;2.97;;
41683;SDS011;27369;52.030;4.586;2022-12-07T08:12:03;10.05;;;1.85;;
41683;SDS011;27369;52.030;4.586;2022-12-07T08:14:30;10.48;;;2.20;;
41683;SDS011;27369;52.030;4.586;2022-12-07T08:16:55;7.32;;;2.78;;
41683;SDS011;27369;52.030;4.586;2022-12-07T08:19:21;9.70;;;2.83;;
41683;SDS011;27369;52.030;4.586;2022-12-07T08:21:46;7.93;;;3.47;;
41683;SDS011;27369;52.030;4.586;2022-12-07T08:24:12;5.88;;;3.15;;
41683;SDS011;27369;52.030;4.586;2022-12-07T08:26:38;11.13;;;4.05;;
41683;SDS011;27369;52.030;4.586;2022-12-07T08:29:03;10.05;;;2.97;;
41683;SDS011;27369;52.030;4.586;2022-12-07T08:31:29;9.25;;;2.85;;
41683;SDS011;27369;52.030;4.586;2022-12-07T08:33:55;14.13;;;3.75;;
41683;SDS011;27369;52.030;4.586;2022-12-07T08:36:20;6.97;;;2.15;;
41683;SDS011;27369;52.030;4.586;2022-12-07T08:38:47;8.77;;;1.70;;
41683;SDS011;27369;52.030;4.586;2022-12-07T08:41:13;4.22;;;1.30;;
41683;SDS011;27369;52.030;4.586;2022-12-07T08:43:39;6.75;;;1.35;;
41683;SDS011;27369;52.030;4.586;2022-12-07T08:46:12;16.73;;;1.48;;
41683;SDS011;27369;52.030;4.586;2022-12-07T08:48:53;3.72;;;1.02;;
41683;SDS011;27369;52.030;4.586;2022-12-07T08:51:22;11.63;;;1.50;;
41683;SDS011;27369;52.030;4.586;2022-12-07T08:53:48;4.03;;;1.27;;
41683;SDS011;27369;52.030;4.586;2022-12-07T08:56:14;6.40;;;1.52;;
41683;SDS011;27369;52.030;4.586;2022-12-07T08:58:40;6.45;;;0.77;;
41683;SDS011;27369;52.030;4.586;2022-12-07T09:01:06;2.67;;;0.90;;
41683;SDS011;27369;52.030;4.586;2022-12-07T09:03:32;5.50;;;1.10;;
41683;SDS011;27369;52.030;4.586;2022-12-07T09:05:57;6.55;;;1.20;;
41683;SDS011;27369;52.030;4.586;2022-12-07T09:08:26;5.60;;;1.23;;
41683;SDS011;27369;52.030;4.586;2022-12-07T09:10:56;5.38;;;1.20;;
41683;SDS011;27369;52.030;4.586;2022-12-07T09:13:21;2.45;;;0.82;;
41683;SDS011;27369;52.030;4.586;2022-12-07T09:15:47;11.00;;;1.20;;
41683;SDS011;27369;52.030;4.586;2022-12-07T09:18:12;7.93;;;1.00;;
41683;SDS011;27369;52.030;4.586;2022-12-07T09:20:38;5.85;;;0.75;;
41683;SDS011;27369;52.030;4.586;2022-12-07T09:23:05;5.03;;;0.70;;
41683;SDS011;27369;52.030;4.586;2022-12-07T09:25:31;5.15;;;0.50;;
41683;SDS011;27369;52.030;4.586;2022-12-07T09:27:57;3.58;;;0.57;;
41683;SDS011;27369;52.030;4.586;2022-12-07T09:30:23;4.22;;;0.45;;
41683;SDS011;27369;52.030;4.586;2022-12-07T09:32:49;3.92;;;0.70;;
41683;SDS011;27369;52.030;4.586;2022-12-07T09:35:15;7.53;;;0.90;;
41683;SDS011;27369;52.030;4.586;2022-12-07T09:37:40;2.72;;;0.82;;
41683;SDS011;27369;52.030;4.586;2022-12-07T09:40:06;2.85;;;0.63;;
41683;SDS011;27369;52.030;4.586;2022-12-07T09:42:38;5.50;;;1.00;;
41683;SDS011;27369;52.030;4.586;2022-12-07T09:45:12;5.35;;;1.25;;
41683;SDS011;27369;52.030;4.586;2022-12-07T09:47:40;7.70;;;1.20;;
41683;SDS011;27369;52.030;4.586;2022-12-07T09:50:16;10.88;;;1.23;;
41683;SDS011;27369;52.030;4.586;2022-12-07T09:52:45;6.60;;;1.83;;
41683;SDS011;27369;52.030;4.586;2022-12-07T09:55:13;2.15;;;0.88;;
41683;SDS011;27369;52.030;4.586;2022-12-07T09:57:42;6.82;;;1.23;;
41683;SDS011;27369;52.030;4.586;2022-12-07T10:00:15;5.70;;;0.90;;
41683;SDS011;27369;52.030;4.586;2022-12-07T10:02:43;8.65;;;1.60;;
41683;SDS011;27369;52.030;4.586;2022-12-07T10:05:15;5.93;;;1.48;;
41683;SDS011;27369;52.030;4.586;2022-12-07T10:07:45;10.55;;;1.83;;
41683;SDS011;27369;52.030;4.586;2022-12-07T10:10:15;4.03;;;1.25;;
41683;SDS011;27369;52.030;4.586;2022-12-07T10:21:05;3.33;;;0.80;;
41683;SDS011;27369;52.030;4.586;2022-12-07T10:23:34;9.98;;;1.15;;
41683;SDS011;27369;52.030;4.586;2022-12-07T10:26:21;6.20;;;1.17;;
41683;SDS011;27369;52.030;4.586;2022-12-07T10:28:50;8.65;;;1.50;;
41683;SDS011;27369;52.030;4.586;2022-12-07T10:31:19;5.60;;;1.30;;
41683;SDS011;27369;52.030;4.586;2022-12-07T10:36:21;6.28;;;1.40;;
41683;SDS011;27369;52.030;4.586;2022-12-07T10:41:28;6.82;;;1.50;;
41683;SDS011;27369;52.030;4.586;2022-12-07T10:43:54;3.40;;;1.20;;
41683;SDS011;27369;52.030;4.586;2022-12-07T10:49:25;4.63;;;1.40;;
41683;SDS011;27369;52.030;4.586;2022-12-07T11:00:26;13.77;;;1.65;;
41683;SDS011;27369;52.030;4.586;2022-12-07T11:05:53;7.93;;;1.70;;
41683;SDS011;27369;52.030;4.586;2022-12-07T11:11:13;7.60;;;0.70;;
41683;SDS011;27369;52.030;4.586;2022-12-07T11:21:41;5.30;;;0.77;;
41683;SDS011;27369;52.030;4.586;2022-12-07T11:30:16;8.57;;;0.77;;
41683;SDS011;27369;52.030;4.586;2022-12-07T11:38:16;5.88;;;0.65;;
41683;SDS011;27369;52.030;4.586;2022-12-07T11:40:46;6.47;;;0.88;;
41683;SDS011;27369;52.030;4.586;2022-12-07T11:46:12;4.93;;;0.70;;
41683;SDS011;27369;52.030;4.586;2022-12-07T11:51:15;3.17;;;0.50;;
41683;SDS011;27369;52.030;4.586;2022-12-07T11:56:21;6.68;;;1.45;;
41683;SDS011;27369;52.030;4.586;2022-12-07T12:04:12;2.45;;;0.50;;
41683;SDS011;27369;52.030;4.586;2022-12-07T12:06:48;7.75;;;0.73;;
41683;SDS011;27369;52.030;4.586;2022-12-07T12:09:15;4.77;;;0.80;;
41683;SDS011;27369;52.030;4.586;2022-12-07T12:19:34;1.13;;;0.30;;
41683;SDS011;27369;52.030;4.586;2022-12-07T12:22:15;4.00;;;0.50;;
41683;SDS011;27369;52.030;4.586;2022-12-07T12:24:44;4.82;;;0.80;;
41683;SDS011;27369;52.030;4.586;2022-12-07T12:29:52;4.43;;;0.77;;
41683;SDS011;27369;52.030;4.586;2022-12-07T12:32:20;2.38;;;0.50;;
41683;SDS011;27369;52.030;4.586;2022-12-07T12:37:52;1.73;;;0.28;;
41683;SDS011;27369;52.030;4.586;2022-12-07T12:42:49;3.15;;;0.60;;
41683;SDS011;27369;52.030;4.586;2022-12-07T12:45:23;6.18;;;0.77;;
41683;SDS011;27369;52.030;4.586;2022-12-07T12:47:59;1.77;;;0.20;;
41683;SDS011;27369;52.030;4.586;2022-12-07T12:53:01;3.60;;;0.65;;
41683;SDS011;27369;52.030;4.586;2022-12-07T12:58:52;3.10;;;0.43;;
41683;SDS011;27369;52.030;4.586;2022-12-07T13:03:56;3.95;;;0.50;;
41683;SDS011;27369;52.030;4.586;2022-12-07T13:08:54;2.63;;;0.40;;
41683;SDS011;27369;52.030;4.586;2022-12-07T13:11:29;2.20;;;0.43;;
41683;SDS011;27369;52.030;4.586;2022-12-07T13:17:07;1.77;;;0.60;;
41683;SDS011;27369;52.030;4.586;2022-12-07T13:30:54;3.05;;;0.30;;
41683;SDS011;27369;52.030;4.586;2022-12-07T13:33:29;4.75;;;0.80;;
41683;SDS011;27369;52.030;4.586;2022-12-07T13:35:55;2.80;;;0.50;;
41683;SDS011;27369;52.030;4.586;2022-12-07T13:41:05;2.35;;;0.30;;
41683;SDS011;27369;52.030;4.586;2022-12-07T13:46:19;3.25;;;0.70;;
41683;SDS011;27369;52.030;4.586;2022-12-07T13:48:50;4.50;;;0.50;;
41683;SDS011;27369;52.030;4.586;2022-12-07T13:51:35;3.92;;;0.52;;
41683;SDS011;27369;52.030;4.586;2022-12-07T13:54:08;5.03;;;0.57;;
41683;SDS011;27369;52.030;4.586;2022-12-07T13:56:35;3.47;;;0.47;;
41683;SDS011;27369;52.030;4.586;2022-12-07T13:59:02;2.33;;;0.35;;
41683;SDS011;27369;52.030;4.586;2022-12-07T14:03:55;3.80;;;0.93;;
41683;SDS011;27369;52.030;4.586;2022-12-07T14:06:24;3.75;;;0.60;;
41683;SDS011;27369;52.030;4.586;2022-12-07T14:11:45;7.80;;;1.10;;
41683;SDS011;27369;52.030;4.586;2022-12-07T14:14:22;6.47;;;1.10;;
41683;SDS011;27369;52.030;4.586;2022-12-07T14:17:01;5.25;;;0.52;;
41683;SDS011;27369;52.030;4.586;2022-12-07T14:19:51;5.60;;;0.90;;
41683;SDS011;27369;52.030;4.586;2022-12-07T14:22:24;5.45;;;0.45;;
41683;SDS011;27369;52.030;4.586;2022-12-07T14:27:38;3.95;;;1.08;;
41683;SDS011;27369;52.030;4.586;2022-12-07T14:30:04;5.20;;;0.73;;
41683;SDS011;27369;52.030;4.586;2022-12-07T14:32:31;6.55;;;0.88;;
41683;SDS011;27369;52.030;4.586;2022-12-07T14:34:58;5.15;;;0.85;;
41683;SDS011;27369;52.030;4.586;2022-12-07T14:37:33;9.18;;;1.40;;
41683;SDS011;27369;52.030;4.586;2022-12-07T14:39:59;8.67;;;0.90;;
41683;SDS011;27369;52.030;4.586;2022-12-07T14:42:26;2.28;;;0.32;;
41683;SDS011;27369;52.030;4.586;2022-12-07T14:44:53;2.47;;;0.50;;
41683;SDS011;27369;52.030;4.586;2022-12-07T14:47:19;4.30;;;0.60;;
41683;SDS011;27369;52.030;4.586;2022-12-07T14:49:45;5.93;;;0.88;;
41683;SDS011;27369;52.030;4.586;2022-12-07T14:52:17;3.38;;;0.63;;
41683;SDS011;27369;52.030;4.586;2022-12-07T14:54:45;3.63;;;0.60;;
41683;SDS011;27369;52.030;4.586;2022-12-07T14:57:11;4.07;;;0.65;;
41683;SDS011;27369;52.030;4.586;2022-12-07T14:59:37;4.20;;;0.57;;
41683;SDS011;27369;52.030;4.586;2022-12-07T15:02:03;5.82;;;0.63;;
41683;SDS011;27369;52.030;4.586;2022-12-07T15:04:29;3.78;;;0.52;;
41683;SDS011;27369;52.030;4.586;2022-12-07T15:06:58;8.48;;;1.20;;
41683;SDS011;27369;52.030;4.586;2022-12-07T15:09:25;4.60;;;0.75;;
41683;SDS011;27369;52.030;4.586;2022-12-07T15:11:51;6.55;;;0.80;;
41683;SDS011;27369;52.030;4.586;2022-12-07T15:14:16;2.08;;;0.50;;
41683;SDS011;27369;52.030;4.586;2022-12-07T15:16:42;6.47;;;1.05;;
41683;SDS011;27369;52.030;4.586;2022-12-07T15:19:12;5.68;;;0.70;;
41683;SDS011;27369;52.030;4.586;2022-12-07T15:21:43;4.57;;;0.70;;
41683;SDS011;27369;52.030;4.586;2022-12-07T15:24:09;2.50;;;0.60;;
41683;SDS011;27369;52.030;4.586;2022-12-07T15:26:36;1.83;;;0.50;;
41683;SDS011;27369;52.030;4.586;2022-12-07T15:29:02;7.50;;;0.82;;
41683;SDS011;27369;52.030;4.586;2022-12-07T15:31:27;3.85;;;0.60;;
41683;SDS011;27369;52.030;4.586;2022-12-07T15:33:53;7.10;;;0.90;;
41683;SDS011;27369;52.030;4.586;2022-12-07T15:36:20;6.75;;;0.95;;
41683;SDS011;27369;52.030;4.586;2022-12-07T15:38:50;5.75;;;1.13;;
41683;SDS011;27369;52.030;4.586;2022-12-07T15:41:16;6.18;;;1.38;;
41683;SDS011;27369;52.030;4.586;2022-12-07T15:43:42;6.68;;;0.85;;
41683;SDS011;27369;52.030;4.586;2022-12-07T15:46:32;6.43;;;1.52;;
41683;SDS011;27369;52.030;4.586;2022-12-07T15:48:59;5.20;;;0.95;;
41683;SDS011;27369;52.030;4.586;2022-12-07T15:51:25;4.32;;;0.70;;
41683;SDS011;27369;52.030;4.586;2022-12-07T15:53:51;4.93;;;1.95;;
41683;SDS011;27369;52.030;4.586;2022-12-07T15:56:17;3.60;;;1.00;;
41683;SDS011;27369;52.030;4.586;2022-12-07T15:58:42;7.87;;;0.73;;
41683;SDS011;27369;52.030;4.586;2022-12-07T16:01:15;7.10;;;1.37;;
41683;SDS011;27369;52.030;4.586;2022-12-07T16:03:42;5.75;;;1.10;;
41683;SDS011;27369;52.030;4.586;2022-12-07T16:06:08;6.43;;;1.20;;
41683;SDS011;27369;52.030;4.586;2022-12-07T16:08:33;6.50;;;1.00;;
41683;SDS011;27369;52.030;4.586;2022-12-07T16:10:59;11.55;;;1.35;;
41683;SDS011;27369;52.030;4.586;2022-12-07T16:13:24;8.07;;;1.17;;
41683;SDS011;27369;52.030;4.586;2022-12-07T16:15:50;8.45;;;2.75;;
41683;SDS011;27369;52.030;4.586;2022-12-07T16:18:15;8.88;;;2.45;;
41683;SDS011;27369;52.030;4.586;2022-12-07T16:20:41;9.80;;;2.15;;
41683;SDS011;27369;52.030;4.586;2022-12-07T16:23:06;7.95;;;1.77;;
41683;SDS011;27369;52.030;4.586;2022-12-07T16:25:32;4.40;;;1.45;;
41683;SDS011;27369;52.030;4.586;2022-12-07T16:27:58;6.57;;;1.80;;
41683;SDS011;27369;52.030;4.586;2022-12-07T16:30:23;8.38;;;2.63;;
41683;SDS011;27369;52.030;4.586;2022-12-07T16:32:50;6.07;;;2.30;;
41683;SDS011;27369;52.030;4.586;2022-12-07T16:35:16;8.98;;;1.73;;
41683;SDS011;27369;52.030;4.586;2022-12-07T16:37:42;9.27;;;1.58;;
41683;SDS011;27369;52.030;4.586;2022-12-07T16:42:34;7.77;;;1.23;;
41683;SDS011;27369;52.030;4.586;2022-12-07T16:45:00;6.45;;;1.08;;
41683;SDS011;27369;52.030;4.586;2022-12-07T16:47:26;4.25;;;1.17;;
41683;SDS011;27369;52.030;4.586;2022-12-07T16:49:52;5.82;;;0.88;;
41683;SDS011;27369;52.030;4.586;2022-12-07T16:52:18;5.68;;;0.82;;
41683;SDS011;27369;52.030;4.586;2022-12-07T16:54:44;4.00;;;1.38;;
41683;SDS011;27369;52.030;4.586;2022-12-07T16:57:10;3.83;;;1.00;;
41683;SDS011;27369;52.030;4.586;2022-12-07T16:59:36;7.15;;;1.00;;
41683;SDS011;27369;52.030;4.586;2022-12-07T17:02:01;6.43;;;1.17;;
41683;SDS011;27369;52.030;4.586;2022-12-07T17:04:27;7.32;;;0.90;;
41683;SDS011;27369;52.030;4.586;2022-12-07T17:06:52;3.88;;;0.82;;
41683;SDS011;27369;52.030;4.586;2022-12-07T17:09:18;4.90;;;0.80;;
41683;SDS011;27369;52.030;4.586;2022-12-07T17:11:44;5.73;;;0.83;;
41683;SDS011;27369;52.030;4.586;2022-12-07T17:14:09;5.50;;;1.05;;
41683;SDS011;27369;52.030;4.586;2022-12-07T17:16:53;5.32;;;1.20;;
41683;SDS011;27369;52.030;4.586;2022-12-07T17:19:19;6.30;;;1.33;;
41683;SDS011;27369;52.030;4.586;2022-12-07T17:21:44;6.00;;;0.88;;
41683;SDS011;27369;52.030;4.586;2022-12-07T17:24:11;5.38;;;0.75;;
41683;SDS011;27369;52.030;4.586;2022-12-07T17:26:38;5.63;;;0.60;;
41683;SDS011;27369;52.030;4.586;2022-12-07T17:29:04;4.38;;;0.60;;
41683;SDS011;27369;52.030;4.586;2022-12-07T17:31:31;3.45;;;0.90;;